Time;durP1;ratioP1;P1;durP2;ratioP2;P2;SDS_P1;SDS_P2;PMS_P1;PMS_P2;Temp;Humidity;BMP_temperature;BMP_pressure;BME280_temperature;BME280_humidity;BME280_pressure;Samples;Min_cycle;Max_cycle;Signal;HPM_P1;HPM_P2
2021/05/15 00:00:07;;;;;;;8.70;5.63;;;9.80;99.90;;;;;;5070046;28;20445;-80
2021/05/15 00:02:33;;;;;;;6.20;5.40;;;10.50;99.90;;;;;;5067590;28;20948;-82
2021/05/15 00:04:59;;;;;;;6.53;5.03;;;10.00;99.90;;;;;;5065740;28;20481;-80
2021/05/15 00:07:26;;;;;;;6.23;5.30;;;10.50;99.90;;;;;;5070019;28;20472;-81
2021/05/15 00:09:52;;;;;;;7.20;6.30;;;9.90;99.90;;;;;;5072642;28;20445;-81
2021/05/15 00:12:18;;;;;;;7.00;5.50;;;;;;;;;;5071753;28;20449;-82
2021/05/15 00:14:45;;;;;;;6.40;5.80;;;10.30;99.90;;;;;;5067830;28;20441;-82
2021/05/15 00:17:11;;;;;;;10.33;6.97;;;;;;;;;;5068251;28;20445;-82
2021/05/15 00:19:37;;;;;;;9.57;6.30;;;10.30;99.90;;;;;;5068890;28;20460;-81
2021/05/15 00:22:04;;;;;;;7.47;6.67;;;10.20;99.90;;;;;;5065381;28;20909;-82
2021/05/15 00:24:31;;;;;;;9.90;5.80;;;10.00;99.90;;;;;;5065288;28;20502;-81
2021/05/15 00:26:57;;;;;;;7.83;6.87;;;9.40;99.90;;;;;;5065231;28;20456;-80
2021/05/15 00:29:24;;;;;;;6.97;6.00;;;;;;;;;;5065640;28;20469;-80
2021/05/15 00:31:50;;;;;;;7.23;6.53;;;;;;;;;;5070789;28;20630;-80
2021/05/15 00:34:16;;;;;;;6.40;5.80;;;10.00;99.90;;;;;;5059671;28;20442;-82
2021/05/15 00:36:42;;;;;;;5.87;5.27;;;9.50;99.90;;;;;;5056078;28;20485;-82
2021/05/15 00:39:08;;;;;;;6.30;5.70;;;10.10;99.90;;;;;;5055551;28;20534;-81
2021/05/15 00:41:37;;;;;;;6.63;6.03;;;9.20;99.90;;;;;;5055678;28;20445;-82
2021/05/15 00:44:16;;;;;;;6.53;5.70;;;9.10;99.90;;;;;;5064767;28;20488;-79
2021/05/15 00:46:45;;;;;;;6.80;5.93;;;9.90;99.90;;;;;;5062163;28;20916;-81
2021/05/15 00:49:11;;;;;;;6.20;5.60;;;9.80;99.90;;;;;;5058481;28;20477;-80
2021/05/15 00:51:38;;;;;;;8.13;5.77;;;9.30;99.90;;;;;;5071463;28;20445;-81
2021/05/15 00:54:06;;;;;;;6.00;5.50;;;9.60;99.90;;;;;;5073903;28;20444;-80
2021/05/15 00:56:32;;;;;;;6.90;6.20;;;9.60;99.90;;;;;;5074813;28;20448;-80
2021/05/15 00:59:00;;;;;;;5.90;4.87;;;9.60;99.90;;;;;;5074830;28;20469;-80
2021/05/15 01:01:27;;;;;;;7.97;5.80;;;9.50;99.90;;;;;;5074513;28;20528;-80
2021/05/15 01:03:53;;;;;;;7.00;6.30;;;9.70;99.90;;;;;;5072871;28;21007;-81
2021/05/15 01:06:19;;;;;;;6.20;5.60;;;9.50;99.90;;;;;;5074032;28;20437;-80
2021/05/15 01:08:46;;;;;;;6.33;5.67;;;9.30;99.90;;;;;;5074529;28;20472;-80
2021/05/15 01:11:13;;;;;;;7.10;5.63;;;9.70;99.90;;;;;;5073934;28;20453;-81
2021/05/15 01:13:39;;;;;;;7.10;5.70;;;9.10;99.90;;;;;;5074729;28;20445;-80
2021/05/15 01:16:07;;;;;;;8.10;6.43;;;9.20;99.90;;;;;;5074391;28;20536;-80
2021/05/15 01:18:33;;;;;;;8.83;5.73;;;9.60;99.90;;;;;;5070244;28;20477;-83
2021/05/15 01:21:01;;;;;;;8.07;6.83;;;9.20;99.90;;;;;;5066053;28;20452;-81
2021/05/15 01:23:28;;;;;;;8.83;6.40;;;8.90;99.90;;;;;;5068746;28;20483;-81
2021/05/15 01:25:54;;;;;;;8.80;6.37;;;9.10;99.90;;;;;;5073601;28;20475;-80
2021/05/15 01:28:20;;;;;;;9.53;5.97;;;9.50;99.90;;;;;;5072727;28;20921;-80
2021/05/15 01:30:46;;;;;;;7.57;5.93;;;9.50;99.90;;;;;;5070277;28;20483;-81
2021/05/15 01:33:12;;;;;;;9.93;6.43;;;8.80;99.90;;;;;;5067918;28;20444;-84
2021/05/15 01:35:39;;;;;;;6.50;5.80;;;;;;;;;;5065094;28;20449;-79
2021/05/15 01:38:06;;;;;;;7.17;6.40;;;9.30;99.90;;;;;;5065553;28;20472;-79
2021/05/15 01:40:32;;;;;;;9.33;5.93;;;9.30;99.90;;;;;;5071234;28;20812;-79
2021/05/15 01:42:58;;;;;;;7.73;5.53;;;9.30;99.90;;;;;;5069464;28;20452;-79
2021/05/15 01:45:26;;;;;;;6.40;5.20;;;8.90;99.90;;;;;;5071681;28;20441;-81
2021/05/15 01:47:53;;;;;;;7.07;5.57;;;9.20;99.90;;;;;;5067648;28;20461;-80
2021/05/15 01:50:19;;;;;;;6.57;5.50;;;9.20;99.90;;;;;;5067816;28;20452;-82
2021/05/15 01:52:45;;;;;;;7.20;6.33;;;8.40;99.90;;;;;;5067450;28;20449;-79
2021/05/15 01:55:18;;;;;;;8.10;6.97;;;9.00;99.90;;;;;;5067029;28;20441;-81
2021/05/15 01:57:44;;;;;;;6.03;5.43;;;9.50;99.90;;;;;;5068293;28;20480;-79
2021/05/15 02:00:11;;;;;;;9.30;5.60;;;9.10;99.90;;;;;;5073368;28;20441;-80
2021/05/15 02:02:37;;;;;;;6.00;5.40;;;9.10;99.90;;;;;;5071683;28;20437;-79
2021/05/15 02:05:03;;;;;;;6.07;4.40;;;8.70;99.90;;;;;;5066849;28;21007;-79
2021/05/15 02:07:29;;;;;;;8.90;5.87;;;9.10;99.90;;;;;;5067914;28;20472;-80
2021/05/15 02:09:55;;;;;;;5.37;4.90;;;9.00;99.90;;;;;;5066360;28;20862;-81
2021/05/15 02:12:23;;;;;;;6.67;5.97;;;;;;;;;;5062227;28;20453;-81
2021/05/15 02:14:49;;;;;;;6.50;5.60;;;9.00;99.90;;;;;;5065360;28;20456;-81
2021/05/15 02:17:15;;;;;;;6.27;5.60;;;;;;;;;;5065705;28;20454;-83
2021/05/15 02:40:54;;;;;;;11.50;7.83;;;;;;;;;;1286480;26;20472;-87
2021/05/15 02:46:10;;;;;;;5.80;4.70;;;;;;;;;;5081575;28;20441;-91
2021/05/15 03:18:11;;;;;;;5.00;4.60;;;8.90;99.90;;;;;;4897863;29;20450;-89
2021/05/15 03:55:52;;;;;;;9.63;7.20;;;8.90;99.90;;;;;;4880877;29;20462;-88
2021/05/15 04:42:27;;;;;;;6.40;5.57;;;9.50;99.90;;;;;;4978558;28;20498;-86
2021/05/15 05:01:49;;;;;;;7.27;6.47;;;9.60;99.90;;;;;;4887412;29;20220;-88
2021/05/15 05:04:15;;;;;;;7.10;6.43;;;9.60;99.90;;;;;;5058662;22;20496;-82
2021/05/15 05:06:42;;;;;;;7.17;6.47;;;9.00;99.90;;;;;;5069770;28;20445;-80
2021/05/15 05:09:08;;;;;;;6.67;5.77;;;;;;;;;;5063878;28;20437;-79
2021/05/15 05:11:34;;;;;;;7.77;5.87;;;9.80;99.90;;;;;;5057457;28;20445;-82
2021/05/15 05:14:01;;;;;;;9.37;6.30;;;;;;;;;;5058264;28;20435;-81
2021/05/15 05:16:27;;;;;;;6.30;5.70;;;10.00;99.90;;;;;;5057587;28;20899;-80
2021/05/15 05:18:53;;;;;;;6.27;5.60;;;10.70;99.90;;;;;;5058861;28;20437;-82
2021/05/15 05:21:20;;;;;;;6.03;5.40;;;10.00;99.90;;;;;;5059964;28;20445;-81
2021/05/15 05:23:46;;;;;;;6.50;5.80;;;10.30;99.90;;;;;;5057922;28;20493;-81
2021/05/15 05:26:13;;;;;;;8.27;5.70;;;9.90;99.90;;;;;;5058171;28;20456;-79
2021/05/15 05:28:41;;;;;;;7.20;6.60;;;;;;;;;;5057527;28;20507;-82
2021/05/15 05:31:08;;;;;;;8.07;6.50;;;10.70;99.90;;;;;;5057106;28;20970;-82
2021/05/15 05:33:37;;;;;;;10.73;6.20;;;10.60;99.90;;;;;;5056786;28;21012;-81
2021/05/15 05:36:03;;;;;;;8.33;6.50;;;10.70;99.90;;;;;;5057012;28;20462;-81
2021/05/15 05:38:30;;;;;;;7.80;6.17;;;11.00;99.90;;;;;;5057709;28;20975;-81
2021/05/15 05:40:56;;;;;;;6.90;6.30;;;10.40;99.90;;;;;;5060931;28;21041;-81
2021/05/15 05:43:22;;;;;;;8.23;7.43;;;10.30;99.90;;;;;;5061520;28;20488;-80
2021/05/15 05:45:48;;;;;;;6.50;5.87;;;10.70;99.90;;;;;;5061373;28;20445;-80
2021/05/15 05:48:18;;;;;;;8.20;6.83;;;10.90;99.90;;;;;;5061024;28;20449;-81
2021/05/15 05:50:44;;;;;;;7.47;6.23;;;11.10;99.90;;;;;;5061285;28;20855;-82
2021/05/15 05:53:10;;;;;;;11.13;7.90;;;;;;;;;;5060325;28;20486;-81
2021/05/15 05:55:37;;;;;;;12.48;8.40;;;11.30;99.90;;;;;;5060383;28;20497;-80
2021/05/15 05:58:04;;;;;;;9.77;8.10;;;11.30;99.90;;;;;;5059736;28;20697;-81
2021/05/15 06:00:30;;;;;;;10.83;8.93;;;11.30;99.90;;;;;;5061053;28;20513;-81
2021/05/15 06:02:56;;;;;;;9.40;8.37;;;11.60;99.90;;;;;;5060987;28;20807;-81
2021/05/15 06:05:22;;;;;;;13.17;10.47;;;10.60;99.90;;;;;;5060011;28;20485;-81
2021/05/15 06:07:48;;;;;;;14.37;9.40;;;11.20;99.90;;;;;;5060028;28;20477;-81
2021/05/15 06:10:14;;;;;;;11.93;9.53;;;11.00;99.90;;;;;;5062166;28;20449;-81
2021/05/15 06:12:41;;;;;;;11.18;9.15;;;11.50;99.90;;;;;;5060497;28;20474;-81
2021/05/15 06:15:08;;;;;;;14.60;10.27;;;11.40;99.90;;;;;;5060832;28;20446;-79
2021/05/15 06:17:37;;;;;;;12.03;10.10;;;11.70;99.90;;;;;;5061127;28;20441;-79
2021/05/15 06:20:04;;;;;;;11.33;10.10;;;11.60;99.90;;;;;;5067678;28;20457;-79
2021/05/15 06:22:30;;;;;;;16.60;10.60;;;11.70;99.90;;;;;;5069792;28;20464;-79
2021/05/15 06:24:56;;;;;;;13.73;10.20;;;11.80;99.90;;;;;;5068030;28;20993;-80
2021/05/15 06:27:22;;;;;;;14.10;10.50;;;11.60;99.90;;;;;;5067596;28;20457;-79
2021/05/15 06:29:50;;;;;;;12.45;10.50;;;12.10;99.90;;;;;;5068318;28;20505;-79
2021/05/15 06:32:16;;;;;;;10.80;9.70;;;12.30;99.90;;;;;;5063667;28;20286;-83
2021/05/15 06:34:42;;;;;;;11.33;10.07;;;;;;;;;;5062382;28;20448;-80
2021/05/15 06:37:08;;;;;;;13.13;9.73;;;12.40;99.90;;;;;;5067366;28;20449;-79
2021/05/15 06:39:35;;;;;;;12.63;9.17;;;;;;;;;;5066677;28;20455;-79
2021/05/15 06:42:01;;;;;;;11.97;9.93;;;;;;;;;;5068230;28;20459;-80
2021/05/15 06:44:28;;;;;;;12.70;9.90;;;12.50;99.90;;;;;;5069162;28;20485;-81
2021/05/15 06:46:55;;;;;;;11.67;9.87;;;12.40;99.90;;;;;;5065856;28;20445;-79
2021/05/15 06:49:21;;;;;;;13.23;10.00;;;12.70;99.90;;;;;;5065069;28;20689;-81
2021/05/15 06:51:47;;;;;;;9.17;8.20;;;11.60;99.90;;;;;;5064060;28;20450;-80
2021/05/15 06:54:13;;;;;;;14.20;10.23;;;12.60;99.90;;;;;;5061969;28;20480;-82
2021/05/15 06:56:39;;;;;;;10.30;9.20;;;12.20;99.90;;;;;;5061656;28;20456;-84
2021/05/15 06:59:05;;;;;;;14.47;9.67;;;12.00;99.90;;;;;;5062550;28;20453;-82
2021/05/15 07:01:37;;;;;;;12.77;9.20;;;;;;;;;;5062574;28;20454;-81
2021/05/15 07:04:14;;;;;;;9.10;8.20;;;;;;;;;;5066343;28;20552;-81
2021/05/15 07:06:41;;;;;;;10.60;8.57;;;12.90;99.90;;;;;;5066177;28;20497;-80
2021/05/15 07:09:07;;;;;;;10.70;9.70;;;13.40;99.90;;;;;;5060928;28;20499;-82
2021/05/15 07:11:33;;;;;;;12.50;9.13;;;13.10;99.90;;;;;;5064169;28;20450;-82
2021/05/15 07:13:59;;;;;;;10.27;8.80;;;13.10;99.90;;;;;;5064684;28;20461;-82
2021/05/15 07:16:26;;;;;;;10.17;9.07;;;;;;;;;;5066906;28;20446;-81
2021/05/15 07:18:52;;;;;;;9.13;8.10;;;13.20;99.90;;;;;;5061876;28;20452;-83
2021/05/15 07:21:19;;;;;;;9.47;8.47;;;12.90;99.90;;;;;;5060969;28;20450;-82
2021/05/15 07:23:45;;;;;;;7.53;6.83;;;13.50;99.90;;;;;;5060842;28;20481;-80
2021/05/15 07:26:11;;;;;;;10.50;9.40;;;13.60;99.90;;;;;;5060100;28;20445;-82
2021/05/15 07:28:37;;;;;;;10.60;9.23;;;13.20;99.90;;;;;;5062368;28;20446;-83
2021/05/15 07:31:04;;;;;;;7.23;6.53;;;13.30;99.90;;;;;;5060404;28;20460;-82
2021/05/15 07:33:30;;;;;;;9.80;8.60;;;;;;;;;;5067321;28;20478;-82
2021/05/15 07:35:57;;;;;;;9.10;8.13;;;;;;;;;;5061218;28;20444;-82
2021/05/15 07:38:26;;;;;;;8.53;7.73;;;13.90;99.90;;;;;;5061568;28;20818;-83
2021/05/15 07:40:53;;;;;;;11.07;9.33;;;14.30;99.90;;;;;;5061134;28;20454;-82
2021/05/15 07:43:23;;;;;;;14.77;10.73;;;;;;;;;;5060693;28;20472;-84
2021/05/15 07:45:49;;;;;;;10.17;9.10;;;14.10;99.90;;;;;;5060943;28;20489;-82
2021/05/15 07:48:15;;;;;;;9.13;8.27;;;14.00;99.90;;;;;;5062452;28;20794;-82
2021/05/15 07:50:42;;;;;;;9.23;8.33;;;13.90;99.90;;;;;;5060012;28;20450;-83
2021/05/15 07:53:08;;;;;;;11.83;9.83;;;14.50;99.90;;;;;;5060033;28;21009;-83
2021/05/15 07:55:35;;;;;;;8.50;7.70;;;14.50;99.90;;;;;;5059180;28;20445;-81
2021/05/15 07:58:04;;;;;;;8.93;8.07;;;14.50;99.90;;;;;;5059823;28;20477;-81
2021/05/15 08:00:30;;;;;;;10.17;9.20;;;14.00;99.90;;;;;;5063138;28;20446;-81
2021/05/15 08:02:56;;;;;;;10.00;9.10;;;14.70;99.90;;;;;;5062310;28;20485;-80
2021/05/15 08:05:23;;;;;;;9.77;8.77;;;;;;;;;;5061356;28;20485;-81
2021/05/15 08:07:49;;;;;;;7.97;7.27;;;14.80;99.90;;;;;;5061974;28;20450;-81
2021/05/15 08:10:15;;;;;;;9.40;8.47;;;14.80;99.90;;;;;;5062186;28;20457;-80
2021/05/15 08:12:42;;;;;;;10.03;9.03;;;14.80;99.90;;;;;;5061573;28;20469;-82
2021/05/15 08:15:09;;;;;;;8.60;7.80;;;15.00;99.90;;;;;;5063981;28;20864;-81
2021/05/15 08:17:36;;;;;;;9.80;8.87;;;15.20;99.90;;;;;;5072409;28;20441;-82
2021/05/15 08:20:03;;;;;;;9.23;8.33;;;14.60;99.90;;;;;;5065900;28;20449;-83
2021/05/15 08:22:29;;;;;;;9.50;8.60;;;15.10;99.90;;;;;;5058711;28;20469;-80
2021/05/15 08:24:56;;;;;;;10.03;8.27;;;16.00;99.90;;;;;;5059681;28;20484;-82
2021/05/15 08:27:23;;;;;;;10.43;9.40;;;14.60;99.90;;;;;;5059509;28;20471;-83
2021/05/15 08:29:50;;;;;;;10.30;9.30;;;14.70;99.90;;;;;;5059062;28;20445;-81
2021/05/15 08:32:17;;;;;;;13.47;12.07;;;15.10;99.90;;;;;;5061741;28;20480;-82
2021/05/15 08:34:43;;;;;;;9.90;8.90;;;;;;;;;;5059425;28;20449;-80
2021/05/15 08:37:09;;;;;;;10.80;9.70;;;15.80;99.90;;;;;;5061118;28;20441;-82
2021/05/15 08:39:35;;;;;;;10.27;8.50;;;15.80;99.90;;;;;;5060022;28;20456;-82
2021/05/15 08:42:03;;;;;;;9.07;8.13;;;15.80;99.90;;;;;;5059895;28;20491;-83
2021/05/15 08:44:29;;;;;;;10.10;9.20;;;15.80;99.90;;;;;;5059430;28;20488;-82
2021/05/15 08:46:57;;;;;;;8.90;8.00;;;15.50;99.90;;;;;;5063742;28;20508;-81
2021/05/15 08:49:24;;;;;;;11.10;9.90;;;16.10;99.90;;;;;;5065795;28;20484;-83
2021/05/15 08:51:53;;;;;;;10.20;9.30;;;15.90;99.90;;;;;;5064844;28;20453;-82
2021/05/15 08:54:21;;;;;;;10.53;9.20;;;15.50;99.90;;;;;;5063343;28;20460;-83
2021/05/15 08:56:48;;;;;;;10.53;9.43;;;15.80;99.90;;;;;;5060320;28;20450;-81
2021/05/15 08:59:14;;;;;;;10.57;9.30;;;15.90;99.90;;;;;;5061122;28;20460;-81
2021/05/15 09:01:42;;;;;;;8.40;7.60;;;16.00;99.90;;;;;;5061114;28;20445;-83
2021/05/15 09:04:09;;;;;;;9.93;9.10;;;15.60;99.90;;;;;;5064468;28;20478;-83
2021/05/15 09:06:39;;;;;;;9.93;8.90;;;15.60;99.90;;;;;;5065477;28;20465;-82
2021/05/15 09:09:06;;;;;;;10.60;9.53;;;16.20;99.90;;;;;;5074853;28;20448;-80
2021/05/15 09:11:32;;;;;;;13.03;11.77;;;16.30;99.90;;;;;;5075269;28;20446;-80
2021/05/15 09:13:58;;;;;;;15.53;10.20;;;15.90;99.90;;;;;;5075931;28;20484;-79
2021/05/15 09:16:24;;;;;;;9.10;8.30;;;16.20;99.90;;;;;;5074848;28;20442;-80
2021/05/15 09:18:51;;;;;;;8.57;7.70;;;;;;;;;;5078528;28;20452;-81
2021/05/15 09:21:20;;;;;;;10.37;8.97;;;16.60;99.90;;;;;;5073224;28;20446;-79
2021/05/15 09:23:49;;;;;;;8.00;7.27;;;;;;;;;;5070868;28;20465;-78
2021/05/15 09:26:16;;;;;;;8.73;7.83;;;16.70;99.90;;;;;;5079541;28;20417;-81
2021/05/15 09:28:45;;;;;;;7.70;7.03;;;16.60;99.90;;;;;;5080100;28;20455;-82
2021/05/15 09:31:13;;;;;;;7.90;7.17;;;16.50;99.90;;;;;;5064078;28;20441;-82
2021/05/15 09:33:39;;;;;;;9.73;7.07;;;16.80;99.90;;;;;;5064413;28;20461;-83
2021/05/15 09:36:16;;;;;;;6.77;5.97;;;16.70;99.90;;;;;;5075993;28;20444;-82
2021/05/15 09:38:43;;;;;;;6.80;6.13;;;17.30;99.90;;;;;;5073704;28;20425;-82
2021/05/15 09:41:09;;;;;;;6.67;6.07;;;16.50;99.90;;;;;;5072043;28;20450;-79
2021/05/15 09:43:35;;;;;;;8.90;7.40;;;16.70;99.90;;;;;;5070240;28;20461;-81
2021/05/15 09:46:05;;;;;;;8.97;8.13;;;16.80;99.90;;;;;;5068691;28;20449;-81
2021/05/15 09:48:36;;;;;;;10.37;9.27;;;;;;;;;;5068232;28;20452;-82
2021/05/15 09:51:12;;;;;;;7.07;6.37;;;16.70;99.90;;;;;;5065098;28;20464;-84
2021/05/15 09:53:39;;;;;;;8.43;7.67;;;16.70;99.90;;;;;;5063020;28;20469;-83
2021/05/15 09:56:06;;;;;;;8.40;6.60;;;16.00;99.90;;;;;;5063679;28;20453;-82
2021/05/15 09:58:32;;;;;;;7.43;6.78;;;16.90;99.90;;;;;;5062637;28;20447;-82
2021/05/15 10:00:59;;;;;;;8.00;7.10;;;16.80;99.90;;;;;;5064130;28;20213;-83
2021/05/15 10:03:26;;;;;;;10.33;9.23;;;16.20;99.90;;;;;;5064933;28;20481;-82
2021/05/15 10:06:00;;;;;;;11.00;9.67;;;16.40;99.90;;;;;;5065827;28;20476;-82
2021/05/15 10:08:33;;;;;;;7.87;6.53;;;;;;;;;;5067395;28;20841;-84
2021/05/15 10:11:00;;;;;;;6.23;5.40;;;16.80;99.90;;;;;;5064357;28;20442;-83
2021/05/15 10:13:27;;;;;;;5.80;5.23;;;16.20;99.90;;;;;;5065645;28;20469;-80
2021/05/15 10:15:54;;;;;;;5.43;4.93;;;16.80;99.90;;;;;;5065747;28;20442;-81
2021/05/15 10:18:20;;;;;;;4.13;3.83;;;16.80;99.90;;;;;;5064204;28;20952;-81
2021/05/15 10:20:47;;;;;;;6.60;4.60;;;16.10;99.90;;;;;;5063867;28;20446;-82
2021/05/15 10:23:18;;;;;;;5.73;5.17;;;16.20;99.90;;;;;;5061418;28;20466;-81
2021/05/15 10:25:45;;;;;;;4.50;4.10;;;16.50;99.90;;;;;;5061166;28;20824;-83
2021/05/15 10:28:11;;;;;;;5.10;4.60;;;17.10;99.90;;;;;;5062715;28;20457;-82
2021/05/15 10:30:38;;;;;;;4.43;4.10;;;17.30;99.90;;;;;;5061800;28;20450;-84
2021/05/15 10:33:09;;;;;;;4.70;4.30;;;17.30;99.90;;;;;;5061992;28;20440;-84
2021/05/15 10:35:40;;;;;;;5.47;5.00;;;17.40;99.90;;;;;;5063068;28;20446;-82
2021/05/15 10:38:09;;;;;;;3.93;3.20;;;17.20;99.90;;;;;;5063754;28;20441;-82
2021/05/15 10:40:44;;;;;;;2.97;2.67;;;17.60;99.90;;;;;;5063604;28;20496;-82
2021/05/15 10:43:10;;;;;;;3.87;3.13;;;17.40;99.90;;;;;;5063619;28;20495;-82
2021/05/15 10:45:38;;;;;;;4.60;4.20;;;17.30;99.90;;;;;;5078739;28;20472;-81
2021/05/15 10:48:13;;;;;;;3.23;3.03;;;17.10;99.90;;;;;;5071804;28;20504;-86
2021/05/15 10:50:51;;;;;;;7.07;6.37;;;17.20;99.90;;;;;;5062861;28;20943;-83
2021/05/15 10:53:22;;;;;;;6.10;4.87;;;17.60;99.90;;;;;;5058951;28;20462;-82
2021/05/15 10:56:02;;;;;;;5.00;3.70;;;16.80;99.90;;;;;;5065345;28;20452;-82
2021/05/15 10:58:47;;;;;;;4.30;3.90;;;17.50;99.90;;;;;;5059349;28;20471;-80
2021/05/15 11:01:16;;;;;;;3.40;2.13;;;17.70;99.90;;;;;;5060598;28;20433;-83
2021/05/15 11:29:28;;;;;;;7.27;2.90;;;;;;;;;;5011780;28;20446;-88
2021/05/15 11:41:50;;;;;;;2.10;1.57;;;;;;;;;;5056967;28;20445;-88
2021/05/15 11:55:14;;;;;;;2.20;2.00;;;18.20;99.90;;;;;;4958386;28;20500;-89
2021/05/15 12:04:54;;;;;;;2.30;2.10;;;;;;;;;;5015343;28;20498;-90
2021/05/15 12:21:50;;;;;;;2.10;1.83;;;18.70;99.90;;;;;;5004811;28;20450;-89
2021/05/15 12:31:43;;;;;;;0.90;0.90;;;;;;;;;;4953976;29;20474;-89
2021/05/15 12:47:01;;;;;;;;;;;;;;;;;;;;;
2021/05/15 12:49:35;;;;;;;1.80;1.17;;;18.90;99.90;;;;;;4985026;22;20858;-83
2021/05/15 12:52:15;;;;;;;1.40;1.30;;;18.40;99.90;;;;;;4958355;29;20425;-84
2021/05/15 12:54:41;;;;;;;1.20;1.10;;;19.00;99.90;;;;;;4959946;28;20433;-84
2021/05/15 12:57:07;;;;;;;1.27;0.90;;;18.40;99.90;;;;;;4958938;29;20476;-82
2021/05/15 12:59:37;;;;;;;1.87;1.40;;;19.10;99.90;;;;;;4958554;28;20495;-83
2021/05/15 13:02:15;;;;;;;1.30;1.23;;;19.30;99.90;;;;;;4957177;28;20448;-83
2021/05/15 13:04:43;;;;;;;1.63;1.30;;;19.40;99.90;;;;;;4957814;28;20853;-84
2021/05/15 13:07:10;;;;;;;1.87;1.70;;;19.10;99.90;;;;;;4958146;28;20457;-83
2021/05/15 13:09:44;;;;;;;3.30;1.90;;;18.40;99.90;;;;;;4956821;28;20474;-83
2021/05/15 13:12:10;;;;;;;1.90;1.50;;;19.50;99.90;;;;;;4957779;28;20460;-81
2021/05/15 13:14:37;;;;;;;2.50;1.83;;;19.40;99.90;;;;;;4956349;28;20449;-83
2021/05/15 13:17:03;;;;;;;2.07;1.47;;;19.30;99.90;;;;;;4957616;28;20536;-82
2021/05/15 13:19:31;;;;;;;2.13;1.47;;;18.50;99.90;;;;;;4957690;28;20473;-80
2021/05/15 13:21:57;;;;;;;5.43;2.60;;;18.70;99.90;;;;;;4960661;28;20450;-80
2021/05/15 13:24:24;;;;;;;1.73;1.63;;;19.00;99.90;;;;;;4962259;28;20488;-82
2021/05/15 13:26:50;;;;;;;4.50;2.83;;;18.90;99.90;;;;;;4972433;28;20560;-81
2021/05/15 13:29:16;;;;;;;3.80;1.90;;;18.90;99.90;;;;;;4965301;28;20494;-82
2021/05/15 13:31:43;;;;;;;2.90;2.70;;;18.80;99.90;;;;;;4960528;28;20464;-82
2021/05/15 13:34:10;;;;;;;2.60;2.40;;;18.40;99.90;;;;;;4960393;28;20452;-82
2021/05/15 13:36:36;;;;;;;5.20;3.10;;;17.40;99.90;;;;;;4957560;28;20955;-82
2021/05/15 13:39:02;;;;;;;6.10;2.90;;;18.20;99.90;;;;;;4957714;28;20528;-83
2021/05/15 13:41:29;;;;;;;5.60;4.50;;;18.00;99.90;;;;;;4960581;28;20460;-83
2021/05/15 13:43:56;;;;;;;5.67;3.07;;;17.50;99.90;;;;;;4960427;28;20966;-81
2021/05/15 13:46:22;;;;;;;4.67;3.07;;;17.80;99.90;;;;;;4960448;28;20490;-83
2021/05/15 13:48:48;;;;;;;3.10;1.90;;;17.70;99.90;;;;;;4958991;28;20479;-83
2021/05/15 13:51:16;;;;;;;1.53;1.40;;;18.00;99.90;;;;;;4959598;28;20779;-83
2021/05/15 13:53:43;;;;;;;1.90;1.70;;;17.50;99.90;;;;;;4957781;28;20448;-81
2021/05/15 13:56:09;;;;;;;2.57;2.37;;;17.60;99.90;;;;;;4958460;28;20201;-83
2021/05/15 13:58:37;;;;;;;7.93;4.23;;;17.70;99.90;;;;;;4959706;28;20530;-80
2021/05/15 14:01:04;;;;;;;8.30;4.30;;;18.00;99.90;;;;;;4962215;28;20461;-83
2021/05/15 14:03:32;;;;;;;2.83;2.47;;;18.30;99.90;;;;;;4962042;28;20456;-82
2021/05/15 14:05:58;;;;;;;5.23;4.40;;;18.30;99.90;;;;;;4966380;28;20492;-80
2021/05/15 14:08:24;;;;;;;4.45;3.30;;;18.80;99.90;;;;;;4970948;28;20573;-82
2021/05/15 14:10:51;;;;;;;3.10;2.55;;;;;;;;;;4971356;28;20560;-80
2021/05/15 14:13:18;;;;;;;10.47;7.70;;;19.00;99.90;;;;;;4971485;29;20663;-80
2021/05/15 14:15:45;;;;;;;4.50;2.40;;;19.20;99.90;;;;;;4971214;28;20440;-80
2021/05/15 14:18:11;;;;;;;6.97;4.17;;;;;;;;;;4972739;28;20462;-79
2021/05/15 14:20:41;;;;;;;2.37;2.07;;;19.30;99.90;;;;;;4972986;29;20453;-82
2021/05/15 14:23:08;;;;;;;2.53;1.90;;;19.20;99.90;;;;;;4968943;28;20457;-82
2021/05/15 14:25:34;;;;;;;5.70;4.50;;;19.00;99.90;;;;;;4968073;28;20497;-79
2021/05/15 14:28:00;;;;;;;3.03;2.73;;;18.80;99.90;;;;;;4968593;28;20481;-79
2021/05/15 14:30:27;;;;;;;2.60;2.40;;;18.80;99.90;;;;;;4967461;28;20456;-81
2021/05/15 14:32:54;;;;;;;3.40;2.60;;;18.80;99.90;;;;;;4967788;28;20469;-82
2021/05/15 14:35:21;;;;;;;3.20;2.90;;;;;;;;;;4967522;28;20444;-82
2021/05/15 14:37:47;;;;;;;1.93;1.40;;;;;;;;;;4965772;28;20979;-79
2021/05/15 14:40:17;;;;;;;2.40;2.20;;;18.30;99.90;;;;;;4963319;29;20451;-82
2021/05/15 14:42:44;;;;;;;5.77;1.40;;;;;;;;;;4963445;28;20461;-82
2021/05/15 14:45:11;;;;;;;1.60;1.50;;;18.30;99.90;;;;;;4964120;29;20862;-81
2021/05/15 14:47:38;;;;;;;2.17;1.67;;;18.90;99.90;;;;;;4962328;28;20871;-81
2021/05/15 14:50:06;;;;;;;2.53;2.03;;;17.90;99.90;;;;;;4968130;28;20433;-80
2021/05/15 14:52:32;;;;;;;11.13;8.23;;;18.80;99.90;;;;;;4968604;28;20440;-79
2021/05/15 14:54:59;;;;;;;15.10;13.33;;;;;;;;;;4968749;28;20284;-81
2021/05/15 14:57:25;;;;;;;5.53;2.57;;;19.00;99.90;;;;;;4969809;28;20479;-82
2021/05/15 14:59:51;;;;;;;2.80;2.47;;;18.80;99.90;;;;;;4967443;28;20483;-81
2021/05/15 15:02:17;;;;;;;2.47;1.60;;;18.50;99.90;;;;;;4966477;28;20460;-81
2021/05/15 15:04:43;;;;;;;1.20;1.10;;;;;;;;;;4961697;28;20575;-82
2021/05/15 15:07:10;;;;;;;2.22;2.03;;;18.90;99.90;;;;;;4959366;28;20506;-82
2021/05/15 15:09:36;;;;;;;5.65;3.65;;;19.00;99.90;;;;;;4958685;28;20534;-82
2021/05/15 15:12:04;;;;;;;2.27;2.07;;;19.10;99.90;;;;;;4960187;28;20206;-83
2021/05/15 15:14:33;;;;;;;1.60;1.50;;;19.10;99.90;;;;;;4960545;28;20454;-83
2021/05/15 15:16:59;;;;;;;2.00;1.73;;;19.00;99.90;;;;;;4961563;28;20459;-81
2021/05/15 15:19:25;;;;;;;5.90;2.37;;;18.90;99.90;;;;;;4963127;28;20476;-83
2021/05/15 15:21:51;;;;;;;4.03;2.70;;;18.40;99.90;;;;;;4961612;28;20453;-81
2021/05/15 15:24:18;;;;;;;2.73;1.70;;;18.70;99.90;;;;;;4960172;28;20821;-81
2021/05/15 15:26:44;;;;;;;2.70;2.47;;;18.50;99.90;;;;;;4960220;28;20465;-82
2021/05/15 15:29:10;;;;;;;3.00;2.73;;;17.70;99.90;;;;;;4960958;28;20928;-83
2021/05/15 15:31:36;;;;;;;4.80;3.30;;;18.30;99.90;;;;;;4960094;28;20466;-82
2021/05/15 15:34:03;;;;;;;2.60;2.40;;;18.30;99.90;;;;;;4961212;28;20202;-82
2021/05/15 15:36:29;;;;;;;4.30;2.70;;;18.20;99.90;;;;;;4961580;28;20463;-84
2021/05/15 15:38:57;;;;;;;4.73;3.33;;;18.50;99.90;;;;;;4959913;28;20986;-83
2021/05/15 15:41:25;;;;;;;4.60;2.43;;;18.00;99.90;;;;;;4960568;28;21009;-83
2021/05/15 15:44:09;;;;;;;6.00;1.30;;;17.80;99.90;;;;;;4961358;28;20452;-83
2021/05/15 15:46:35;;;;;;;3.63;1.70;;;17.30;99.90;;;;;;4961935;28;20507;-81
2021/05/15 15:49:02;;;;;;;3.00;1.63;;;16.70;99.90;;;;;;4957794;28;20491;-81
2021/05/15 15:51:28;;;;;;;4.67;2.23;;;15.60;99.90;;;;;;4959434;28;20461;-82
2021/05/15 15:53:56;;;;;;;2.43;1.60;;;15.10;99.90;;;;;;4958119;28;20959;-82
2021/05/15 15:56:24;;;;;;;4.80;2.10;;;14.80;99.90;;;;;;4962881;28;20461;-82
2021/05/15 15:58:50;;;;;;;4.20;3.30;;;15.20;99.90;;;;;;4963819;28;20474;-83
2021/05/15 16:01:16;;;;;;;4.60;4.17;;;14.80;99.90;;;;;;4967220;28;20450;-84
2021/05/15 16:03:42;;;;;;;5.90;4.00;;;;;;;;;;4963948;28;20450;-81
2021/05/15 16:06:09;;;;;;;8.63;6.40;;;;;;;;;;4960839;28;20493;-83
2021/05/15 16:08:36;;;;;;;10.23;6.37;;;15.10;99.90;;;;;;4964745;28;20470;-83
2021/05/15 16:11:04;;;;;;;9.27;5.87;;;15.20;99.90;;;;;;4967495;28;20952;-82
2021/05/15 16:13:31;;;;;;;10.53;6.20;;;15.40;99.90;;;;;;4970688;28;20450;-82
2021/05/15 16:15:58;;;;;;;8.47;5.97;;;;;;;;;;4969230;28;20449;-83
2021/05/15 16:18:24;;;;;;;8.40;6.70;;;15.60;99.90;;;;;;4966734;28;20477;-82
2021/05/15 16:20:50;;;;;;;11.30;4.87;;;15.70;99.90;;;;;;4962954;28;20445;-82
2021/05/15 16:23:16;;;;;;;10.67;8.30;;;15.90;99.90;;;;;;4965896;28;20457;-82
2021/05/15 16:25:42;;;;;;;7.30;5.90;;;15.80;99.90;;;;;;4968785;28;20486;-80
2021/05/15 16:28:09;;;;;;;6.67;5.80;;;15.80;99.90;;;;;;4968290;28;20474;-81
2021/05/15 16:30:36;;;;;;;3.87;3.10;;;15.80;99.90;;;;;;4969713;28;20480;-81
2021/05/15 16:33:03;;;;;;;9.23;7.57;;;15.80;99.90;;;;;;4968848;28;20457;-81
2021/05/15 16:35:29;;;;;;;7.67;4.80;;;15.90;99.90;;;;;;4966824;28;20446;-80
2021/05/15 16:37:55;;;;;;;7.80;5.87;;;16.00;99.90;;;;;;4963513;28;20481;-81
2021/05/15 16:40:22;;;;;;;5.30;3.80;;;16.10;99.90;;;;;;4962715;28;20944;-83
2021/05/15 16:42:48;;;;;;;3.80;3.33;;;16.10;99.90;;;;;;4959616;28;20450;-83
2021/05/15 16:45:14;;;;;;;3.50;3.00;;;16.20;99.90;;;;;;4958331;28;20489;-83
2021/05/15 16:47:41;;;;;;;3.87;3.57;;;16.30;99.90;;;;;;4957831;28;20478;-83
2021/05/15 16:50:09;;;;;;;5.63;3.60;;;16.40;99.90;;;;;;4960239;28;20445;-81
2021/05/15 16:52:37;;;;;;;4.70;3.43;;;16.40;99.90;;;;;;4967765;28;20454;-83
2021/05/15 16:55:05;;;;;;;3.83;3.50;;;16.20;99.90;;;;;;4971059;28;20446;-82
2021/05/15 16:57:31;;;;;;;3.77;3.47;;;17.00;99.90;;;;;;4971213;28;20473;-81